createdAt,value
2023-01-05T00:00:47.689Z,9.45
2023-01-05T00:04:29.576Z,8.82
2023-01-05T00:08:11.331Z,7.32
2023-01-05T00:12:11.580Z,9.18
2023-01-05T00:16:12.010Z,6.63
2023-01-05T00:20:12.434Z,7.13
2023-01-05T00:23:54.143Z,7.22
2023-01-05T00:27:36.706Z,6.78
2023-01-05T00:31:18.435Z,5.57
2023-01-05T00:35:01.739Z,7.85
2023-01-05T00:38:43.447Z,7.28
2023-01-05T00:42:25.223Z,6.25
2023-01-05T00:46:07.232Z,6.32
2023-01-05T00:49:49.236Z,6.30
2023-01-05T00:53:30.925Z,5.85
2023-01-05T00:57:13.351Z,6.88
2023-01-05T01:00:55.097Z,6.70
2023-01-05T01:04:37.158Z,7.22
2023-01-05T01:08:18.851Z,6.25
2023-01-05T01:12:01.274Z,7.20
2023-01-05T01:15:42.993Z,6.63
2023-01-05T01:19:26.877Z,7.20
2023-01-05T01:23:08.728Z,6.20
2023-01-05T01:26:50.507Z,6.22
2023-01-05T01:30:32.296Z,5.72
2023-01-05T01:34:14.182Z,6.80
2023-01-05T01:37:55.922Z,5.72
2023-01-05T01:41:38.106Z,5.95
2023-01-05T01:45:24.637Z,5.28
2023-01-05T01:49:10.532Z,5.95
2023-01-05T01:52:57.176Z,5.85
2023-01-05T01:56:50.315Z,6.55
2023-01-05T02:00:32.026Z,6.45
2023-01-05T02:04:13.825Z,6.90
2023-01-05T02:07:55.578Z,8.52
2023-01-05T02:12:04.852Z,7.57
2023-01-05T02:16:03.784Z,6.82
2023-01-05T02:20:07.210Z,5.47
2023-01-05T02:23:57.814Z,7.15
2023-01-05T02:28:17.168Z,6.30
2023-01-05T02:32:27.297Z,6.47
2023-01-05T02:36:29.594Z,6.85
2023-01-05T02:40:20.966Z,5.82
2023-01-05T02:44:03.383Z,6.38
2023-01-05T02:47:45.688Z,5.85
2023-01-05T02:51:35.791Z,7.18
2023-01-05T02:55:20.723Z,6.82
2023-01-05T02:59:10.451Z,6.97
2023-01-05T03:02:58.332Z,5.38
2023-01-05T03:06:49.619Z,6.57
2023-01-05T03:10:50.337Z,6.22
2023-01-05T03:14:42.669Z,7.15
2023-01-05T03:18:26.600Z,6.68
2023-01-05T03:22:54.482Z,6.85
2023-01-05T03:26:56.508Z,6.90
2023-01-05T03:31:29.204Z,8.07
2023-01-05T03:35:31.881Z,8.35
2023-01-05T03:39:18.042Z,8.40
2023-01-05T03:43:00.357Z,8.05
2023-01-05T03:46:42.240Z,6.95
2023-01-05T03:50:24.128Z,7.38
2023-01-05T03:54:05.964Z,6.30
2023-01-05T03:57:47.762Z,7.65
2023-01-05T04:01:29.585Z,6.28
2023-01-05T04:05:11.367Z,7.18
2023-01-05T04:08:53.195Z,6.45
2023-01-05T04:12:36.536Z,6.57
2023-01-05T04:20:00.420Z,6.35
2023-01-05T04:23:42.135Z,5.45
2023-01-05T04:27:24.009Z,7.80
2023-01-05T04:31:05.821Z,5.90
2023-01-05T04:34:47.554Z,6.95
2023-01-05T04:38:29.261Z,5.00
2023-01-05T04:42:11.006Z,5.05
2023-01-05T04:45:52.782Z,5.82
2023-01-05T04:49:34.545Z,5.85
2023-01-05T04:53:16.238Z,4.88
2023-01-05T04:56:58.003Z,7.03
2023-01-05T05:00:39.915Z,6.55
2023-01-05T05:04:21.818Z,4.75
2023-01-05T05:08:03.741Z,5.25
2023-01-05T05:11:45.496Z,4.97
2023-01-05T05:15:27.270Z,3.90
2023-01-05T05:19:10.539Z,3.63
2023-01-05T05:26:33.834Z,3.47
2023-01-05T05:30:15.604Z,3.80
2023-01-05T05:33:57.373Z,3.42
2023-01-05T05:37:39.120Z,4.57
2023-01-05T05:41:20.850Z,3.50
2023-01-05T05:45:05.507Z,3.50
2023-01-05T05:48:47.243Z,3.33
2023-01-05T05:52:28.972Z,3.75
2023-01-05T05:56:10.683Z,3.97
2023-01-05T05:59:52.391Z,4.15
2023-01-05T06:03:34.282Z,3.63
2023-01-05T06:07:15.971Z,4.30
2023-01-05T06:10:58.162Z,4.60
2023-01-05T06:14:39.923Z,4.43
2023-01-05T06:18:21.747Z,4.03
2023-01-05T06:22:03.438Z,4.72
2023-01-05T06:25:45.373Z,4.10
2023-01-05T06:29:27.076Z,4.10
2023-01-05T06:33:08.860Z,6.22
2023-01-05T06:36:50.593Z,4.38
2023-01-05T06:40:32.443Z,4.60
2023-01-05T06:44:14.155Z,4.32
2023-01-05T06:47:57.423Z,3.65
2023-01-05T06:55:22.313Z,4.18
2023-01-05T06:59:04.602Z,4.63
2023-01-05T07:02:46.408Z,3.33
2023-01-05T07:06:28.283Z,4.25
2023-01-05T07:10:10.471Z,3.67
2023-01-05T07:13:52.304Z,3.80
2023-01-05T07:17:34.071Z,3.70
2023-01-05T07:21:15.814Z,2.60
2023-01-05T07:24:58.861Z,3.22
2023-01-05T07:28:40.606Z,4.50
2023-01-05T07:32:22.345Z,4.50
2023-01-05T07:36:04.795Z,3.42
2023-01-05T07:39:46.500Z,2.93
2023-01-05T07:43:28.420Z,4.55
2023-01-05T07:47:10.145Z,3.35
2023-01-05T07:50:52.191Z,3.80
2023-01-05T07:54:33.931Z,3.65
2023-01-05T07:58:16.331Z,3.33
2023-01-05T08:01:58.649Z,2.80
2023-01-05T08:05:40.533Z,2.80
2023-01-05T08:09:40.895Z,2.30
2023-01-05T08:13:41.389Z,3.05
2023-01-05T08:17:23.141Z,3.08
2023-01-05T08:21:05.945Z,2.92
2023-01-05T08:24:47.715Z,2.50
2023-01-05T08:28:35.325Z,2.60
2023-01-05T08:32:17.481Z,3.15
2023-01-05T08:35:59.418Z,2.50
2023-01-05T08:39:41.622Z,2.17
2023-01-05T08:43:23.327Z,2.22
2023-01-05T08:47:05.035Z,2.25
2023-01-05T08:50:46.882Z,2.30
2023-01-05T08:54:28.677Z,2.10
2023-01-05T08:58:10.395Z,2.65
2023-01-05T09:01:52.363Z,2.40
2023-01-05T09:05:34.187Z,2.05
2023-01-05T09:09:15.914Z,2.30
2023-01-05T09:12:57.627Z,2.33
2023-01-05T09:17:05.191Z,2.10
2023-01-05T09:20:41.152Z,2.55
2023-01-05T09:24:23.171Z,2.10
2023-01-05T09:28:05.042Z,2.10
2023-01-05T09:31:47.080Z,2.10
2023-01-05T09:35:28.810Z,1.98
2023-01-05T09:39:10.732Z,2.40
2023-01-05T09:42:53.224Z,2.60
2023-01-05T09:46:41.661Z,2.10
2023-01-05T09:50:26.757Z,2.33
2023-01-05T09:54:16.919Z,2.10
2023-01-05T09:58:02.850Z,3.20
2023-01-05T10:01:47.676Z,2.75
2023-01-05T10:05:31.698Z,2.25
2023-01-05T10:09:20.244Z,2.30
2023-01-05T10:13:03.792Z,2.03
2023-01-05T10:16:46.506Z,2.83
2023-01-05T10:20:50.101Z,2.70
2023-01-05T10:28:30.211Z,2.92
2023-01-05T10:32:17.954Z,2.65
2023-01-05T10:36:57.655Z,3.03
2023-01-05T10:40:35.295Z,2.47
2023-01-05T10:44:16.979Z,2.50
2023-01-05T10:47:59.731Z,2.80
2023-01-05T10:51:42.206Z,3.28
2023-01-05T10:55:25.272Z,3.05
2023-01-05T10:59:12.211Z,2.65
2023-01-05T11:03:03.035Z,2.90
2023-01-05T11:06:47.269Z,2.53
2023-01-05T11:10:31.037Z,2.60
2023-01-05T11:14:16.806Z,2.58
2023-01-05T11:17:58.823Z,2.63
2023-01-05T11:21:45.591Z,2.67
2023-01-05T11:25:33.291Z,3.00
2023-01-05T11:29:16.380Z,2.20
2023-01-05T11:32:59.378Z,2.70
2023-01-05T11:36:42.716Z,2.33
2023-01-05T11:40:32.086Z,2.10
2023-01-05T11:44:22.579Z,2.63
2023-01-05T11:48:08.721Z,2.30
2023-01-05T11:51:50.498Z,2.70
2023-01-05T11:55:39.999Z,2.67
2023-01-05T11:59:30.852Z,2.60
2023-01-05T12:03:24.822Z,2.85
2023-01-05T12:07:31.063Z,4.03
2023-01-05T12:11:23.965Z,2.78
2023-01-05T12:15:11.737Z,2.88
2023-01-05T12:19:15.035Z,2.80
2023-01-05T12:23:03.901Z,2.88
2023-01-05T12:27:19.861Z,3.03
2023-01-05T12:35:45.170Z,2.70
2023-01-05T12:39:44.951Z,3.58
2023-01-05T12:43:26.632Z,2.92
2023-01-05T12:47:17.944Z,2.83
2023-01-05T12:51:16.497Z,2.92
2023-01-05T12:55:20.370Z,3.28
2023-01-05T12:59:30.521Z,3.45
2023-01-05T13:03:21.968Z,3.55
2023-01-05T13:07:11.286Z,3.60
2023-01-05T13:11:14.675Z,3.40
2023-01-05T13:15:11.412Z,3.53
2023-01-05T13:19:07.394Z,2.72
2023-01-05T13:22:54.194Z,3.10
2023-01-05T13:26:38.449Z,3.85
2023-01-05T13:30:31.151Z,4.18
2023-01-05T13:34:29.525Z,4.37
2023-01-05T13:38:14.225Z,4.75
2023-01-05T13:42:25.396Z,3.80
2023-01-05T13:46:39.463Z,2.95
2023-01-05T13:50:27.579Z,2.90
2023-01-05T13:54:49.177Z,3.67
2023-01-05T13:58:59.618Z,3.30
2023-01-05T14:02:45.097Z,2.63
2023-01-05T14:06:37.771Z,3.10
2023-01-05T14:10:27.702Z,3.75
2023-01-05T14:18:50.937Z,3.22
2023-01-05T14:22:38.257Z,3.38
2023-01-05T14:27:00.191Z,4.80
2023-01-05T14:30:41.909Z,3.40
2023-01-05T14:34:26.368Z,2.90
2023-01-05T14:38:19.529Z,3.65
2023-01-05T14:42:17.548Z,4.40
2023-01-05T14:46:07.475Z,3.65
2023-01-05T14:49:53.520Z,3.95
2023-01-05T14:53:47.479Z,3.17
2023-01-05T14:57:36.745Z,2.67
2023-01-05T15:01:18.474Z,3.03
2023-01-05T15:05:07.541Z,2.30
2023-01-05T15:09:06.981Z,2.60
2023-01-05T15:13:09.793Z,2.40
2023-01-05T15:17:03.487Z,2.25
2023-01-05T15:20:47.914Z,2.65
2023-01-05T15:24:52.678Z,2.90
2023-01-05T15:28:53.221Z,2.47
2023-01-05T15:32:42.410Z,2.05
2023-01-05T15:36:30.573Z,2.67
2023-01-05T15:40:21.451Z,2.90
2023-01-05T15:44:03.273Z,2.47
2023-01-05T15:47:45.802Z,2.50
2023-01-05T15:51:31.494Z,3.47
2023-01-05T15:55:22.339Z,3.00
2023-01-05T15:59:17.585Z,3.55
2023-01-05T16:02:59.863Z,3.33
2023-01-05T16:06:44.936Z,3.87
2023-01-05T16:10:44.201Z,4.15
2023-01-05T16:14:40.620Z,3.50
2023-01-05T16:18:42.019Z,3.28
2023-01-05T16:22:26.686Z,3.63
2023-01-05T16:26:16.206Z,3.83
2023-01-05T16:30:35.180Z,3.42
2023-01-05T16:34:20.654Z,3.65
2023-01-05T16:38:27.418Z,3.83
2023-01-05T16:42:40.259Z,4.07
2023-01-05T16:46:25.403Z,3.40
2023-01-05T16:50:51.938Z,3.30
2023-01-05T16:54:38.229Z,2.97
2023-01-05T16:58:29.042Z,4.05
2023-01-05T17:02:52.501Z,4.07
2023-01-05T17:06:34.233Z,4.75
2023-01-05T17:10:22.147Z,4.82
2023-01-05T17:14:06.376Z,4.43
2023-01-05T17:17:48.104Z,3.67
2023-01-05T17:21:31.989Z,5.20
2023-01-05T17:25:14.460Z,4.32
2023-01-05T17:32:48.574Z,4.13
2023-01-05T17:36:33.983Z,3.33
2023-01-05T17:40:19.114Z,3.60
2023-01-05T17:44:00.946Z,4.25
2023-01-05T17:47:43.281Z,3.83
2023-01-05T17:51:28.061Z,4.17
2023-01-05T17:55:11.365Z,4.47
2023-01-05T18:02:36.531Z,3.28
2023-01-05T18:06:18.309Z,3.72
2023-01-05T18:10:00.322Z,4.60
2023-01-05T18:17:28.712Z,3.60
2023-01-05T18:21:10.520Z,3.90
2023-01-05T18:24:52.232Z,3.20
2023-01-05T18:28:34.010Z,3.35
2023-01-05T18:32:15.702Z,4.13
2023-01-05T18:39:44.719Z,5.10
2023-01-05T18:43:26.441Z,4.47
2023-01-05T18:47:08.800Z,6.25
2023-01-05T18:50:52.256Z,4.37
2023-01-05T18:54:33.999Z,4.57
2023-01-05T18:58:16.043Z,4.45
2023-01-05T19:01:58.015Z,4.22
2023-01-05T19:05:41.619Z,3.47
2023-01-05T19:09:23.351Z,4.90
2023-01-05T19:13:05.436Z,4.95
2023-01-05T19:16:48.891Z,4.28
2023-01-05T19:20:31.815Z,4.97
2023-01-05T19:24:19.273Z,5.03
2023-01-05T19:28:02.368Z,4.35
2023-01-05T19:35:26.035Z,3.97
2023-01-05T19:39:16.500Z,3.55
2023-01-05T19:42:58.271Z,3.80
2023-01-05T19:46:40.532Z,3.50
2023-01-05T19:50:22.314Z,4.60
2023-01-05T19:54:04.845Z,3.50
2023-01-05T19:57:46.566Z,3.60
2023-01-05T20:01:32.570Z,3.40
2023-01-05T20:05:14.579Z,2.90
2023-01-05T20:08:59.005Z,3.53
2023-01-05T20:12:40.918Z,4.25
2023-01-05T20:16:22.645Z,3.47
2023-01-05T20:20:04.598Z,2.90
2023-01-05T20:23:46.330Z,3.65
2023-01-05T20:27:28.069Z,3.53
2023-01-05T20:31:31.100Z,4.07
2023-01-05T20:35:14.053Z,4.10
2023-01-05T20:38:57.076Z,4.63
2023-01-05T20:42:38.886Z,3.25
2023-01-05T20:46:23.758Z,3.22
2023-01-05T20:50:07.496Z,4.25
2023-01-05T20:53:51.112Z,3.00
2023-01-05T20:57:32.880Z,3.30
2023-01-05T21:01:15.218Z,3.72
2023-01-05T21:04:56.963Z,4.43
2023-01-05T21:08:38.980Z,5.53
2023-01-05T21:12:21.342Z,4.00
2023-01-05T21:16:05.870Z,3.70
2023-01-05T21:19:47.661Z,3.50
2023-01-05T21:23:29.408Z,5.22
2023-01-05T21:27:11.443Z,3.35
2023-01-05T21:30:53.230Z,3.50
2023-01-05T21:34:35.024Z,4.18
2023-01-05T21:38:16.740Z,5.32
2023-01-05T21:42:17.029Z,5.57
2023-01-05T21:46:08.570Z,3.95
2023-01-05T21:49:50.331Z,4.72
2023-01-05T21:53:50.608Z,3.85
2023-01-05T21:57:32.332Z,3.83
2023-01-05T22:01:14.194Z,4.18
2023-01-05T22:04:55.983Z,4.28
2023-01-05T22:08:37.760Z,4.07
2023-01-05T22:12:19.561Z,4.22
2023-01-05T22:16:01.390Z,4.18
2023-01-05T22:19:43.137Z,3.80
2023-01-05T22:23:27.140Z,3.78
2023-01-05T22:27:09.679Z,3.63
2023-01-05T22:30:51.404Z,3.70
2023-01-05T22:34:33.152Z,4.00
2023-01-05T22:38:14.918Z,4.20
2023-01-05T22:41:56.705Z,5.13
2023-01-05T22:45:38.417Z,3.40
2023-01-05T22:49:20.218Z,4.20
2023-01-05T22:53:01.951Z,3.97
2023-01-05T22:56:43.665Z,4.00
2023-01-05T23:00:25.370Z,4.28
2023-01-05T23:04:07.605Z,4.30
2023-01-05T23:07:49.523Z,3.53
2023-01-05T23:11:35.030Z,3.05
2023-01-05T23:15:17.030Z,3.60
2023-01-05T23:18:58.796Z,3.67
2023-01-05T23:22:40.627Z,3.40
2023-01-05T23:26:23.533Z,3.80
2023-01-05T23:30:06.563Z,2.05
2023-01-05T23:33:49.011Z,1.70
2023-01-05T23:37:31.143Z,1.63
2023-01-05T23:41:14.688Z,2.00
2023-01-05T23:44:56.401Z,1.50
2023-01-05T23:48:39.014Z,1.50
2023-01-05T23:52:20.777Z,2.33
2023-01-05T23:56:07.838Z,1.65
2023-01-05T23:59:49.550Z,1.83
